createdAt,value
2022-08-30T00:01:01.889Z,96378.78
2022-08-30T00:03:34.581Z,96377.00
2022-08-30T00:06:01.065Z,96382.94
2022-08-30T00:08:27.847Z,96378.06
2022-08-30T00:10:54.776Z,96380.16
2022-08-30T00:13:22.407Z,96380.59
2022-08-30T00:15:49.255Z,96376.75
2022-08-30T00:18:18.193Z,96374.88
2022-08-30T00:20:47.676Z,96384.94
2022-08-30T00:23:14.588Z,96384.59
2022-08-30T00:25:42.176Z,96377.25
2022-08-30T00:28:09.685Z,96366.75
2022-08-30T00:30:37.519Z,96379.13
2022-08-30T00:33:04.604Z,96380.34
2022-08-30T00:35:31.331Z,96374.88
2022-08-30T00:37:58.427Z,96377.47
2022-08-30T00:40:27.934Z,96384.88
2022-08-30T00:43:02.262Z,96383.16
2022-08-30T00:45:35.301Z,96383.53
2022-08-30T00:48:02.845Z,96380.47
2022-08-30T00:50:32.792Z,96374.63
2022-08-30T00:53:01.141Z,96381.59
2022-08-30T00:55:29.612Z,96380.88
2022-08-30T00:58:00.227Z,96376.75
2022-08-30T01:00:28.664Z,96380.00
2022-08-30T01:02:55.651Z,96387.41
2022-08-30T01:05:24.324Z,96389.25
2022-08-30T01:07:50.769Z,96389.69
2022-08-30T01:10:18.312Z,96392.81
2022-08-30T01:12:45.309Z,96397.59
2022-08-30T01:15:14.458Z,96383.47
2022-08-30T01:17:43.762Z,96385.75
2022-08-30T01:20:38.271Z,96387.84
2022-08-30T01:23:14.621Z,96381.69
2022-08-30T01:25:43.752Z,96382.50
2022-08-30T01:28:15.782Z,96389.25
2022-08-30T01:30:45.746Z,96381.59
2022-08-30T01:33:13.495Z,96384.88
2022-08-30T01:35:56.843Z,96389.84
2022-08-30T01:38:28.735Z,96390.66
2022-08-30T01:41:10.576Z,96385.03
2022-08-30T01:43:37.326Z,96384.50
2022-08-30T01:46:06.163Z,96384.16
2022-08-30T01:48:34.835Z,96379.84
2022-08-30T01:51:02.278Z,96385.59
2022-08-30T01:53:29.227Z,96383.41
2022-08-30T01:55:56.380Z,96384.66
2022-08-30T01:58:23.208Z,96381.59
2022-08-30T02:00:50.225Z,96376.88
2022-08-30T02:03:17.188Z,96380.25
2022-08-30T02:05:43.687Z,96385.00
2022-08-30T02:08:10.071Z,96379.25
2022-08-30T02:10:36.869Z,96377.91
2022-08-30T02:13:04.176Z,96373.75
2022-08-30T02:15:30.680Z,96377.53
2022-08-30T02:18:01.417Z,96388.19
2022-08-30T02:20:28.602Z,96383.31
2022-08-30T02:22:56.725Z,96387.81
2022-08-30T02:25:26.030Z,96375.97
2022-08-30T02:27:52.792Z,96373.97
2022-08-30T02:30:19.148Z,96382.25
2022-08-30T02:32:45.514Z,96380.41
2022-08-30T02:35:12.263Z,96374.16
2022-08-30T02:37:39.043Z,96375.84
2022-08-30T02:40:07.482Z,96373.56
2022-08-30T02:42:34.078Z,96382.00
2022-08-30T02:45:01.077Z,96383.28
2022-08-30T02:47:27.619Z,96370.59
2022-08-30T02:49:53.995Z,96372.75
2022-08-30T02:52:20.777Z,96374.59
2022-08-30T02:54:55.100Z,96378.22
2022-08-30T02:57:22.087Z,96369.28
2022-08-30T02:59:49.149Z,96368.47
2022-08-30T03:02:15.888Z,96363.38
2022-08-30T03:04:45.068Z,96370.19
2022-08-30T03:07:12.639Z,96362.59
2022-08-30T03:09:39.607Z,96356.06
2022-08-30T03:12:08.189Z,96361.22
2022-08-30T03:14:36.640Z,96369.47
2022-08-30T03:17:06.669Z,96371.19
2022-08-30T03:19:38.416Z,96364.06
2022-08-30T03:22:06.787Z,96363.06
2022-08-30T03:24:34.519Z,96362.94
2022-08-30T03:27:01.364Z,96365.63
2022-08-30T03:29:30.171Z,96361.13
2022-08-30T03:31:57.408Z,96362.56
2022-08-30T03:34:25.650Z,96369.75
2022-08-30T03:36:54.182Z,96366.09
2022-08-30T03:39:22.325Z,96364.06
2022-08-30T03:41:49.291Z,96374.72
2022-08-30T03:44:16.275Z,96369.81
2022-08-30T03:46:43.247Z,96368.09
2022-08-30T03:49:09.646Z,96368.09
2022-08-30T03:51:36.578Z,96370.81
2022-08-30T03:54:03.321Z,96370.88
2022-08-30T03:56:29.982Z,96369.69
2022-08-30T03:58:57.174Z,96367.03
2022-08-30T04:01:23.584Z,96367.97
2022-08-30T04:03:49.980Z,96371.28
2022-08-30T04:06:17.295Z,96376.03
2022-08-30T04:08:46.288Z,96370.09
2022-08-30T04:11:14.901Z,96366.41
2022-08-30T04:13:41.269Z,96369.06
2022-08-30T04:16:07.720Z,96370.19
2022-08-30T04:18:35.948Z,96368.56
2022-08-30T04:21:03.838Z,96375.66
2022-08-30T04:23:30.683Z,96367.09
2022-08-30T04:25:58.048Z,96370.16
2022-08-30T04:28:24.403Z,96370.91
2022-08-30T04:30:51.243Z,96367.22
2022-08-30T04:33:18.144Z,96363.13
2022-08-30T04:35:47.730Z,96362.38
2022-08-30T04:38:15.851Z,96364.88
2022-08-30T04:40:44.148Z,96362.47
2022-08-30T04:43:12.712Z,96368.00
2022-08-30T04:45:40.940Z,96372.22
2022-08-30T04:48:08.525Z,96380.31
2022-08-30T04:50:34.916Z,96380.66
2022-08-30T04:53:01.827Z,96384.47
2022-08-30T04:55:28.350Z,96385.84
2022-08-30T04:57:54.924Z,96395.06
2022-08-30T05:00:21.919Z,96391.13
2022-08-30T05:02:48.994Z,96399.25
2022-08-30T05:05:34.206Z,96395.41
2022-08-30T05:08:00.743Z,96398.00
2022-08-30T05:10:29.938Z,96419.00
2022-08-30T05:12:56.851Z,96407.63
2022-08-30T05:15:23.809Z,96420.78
2022-08-30T05:17:50.238Z,96422.06
2022-08-30T05:20:17.688Z,96414.19
2022-08-30T05:22:53.273Z,96417.00
2022-08-30T05:25:26.538Z,96409.97
2022-08-30T05:27:53.582Z,96414.78
2022-08-30T05:30:21.474Z,96423.38
2022-08-30T05:32:48.434Z,96420.56
2022-08-30T05:35:17.283Z,96421.41
2022-08-30T05:37:43.843Z,96420.16
2022-08-30T05:40:11.856Z,96420.56
2022-08-30T05:42:41.235Z,96421.84
2022-08-30T05:45:08.476Z,96424.34
2022-08-30T05:47:35.959Z,96429.31
2022-08-30T05:50:02.903Z,96425.44
2022-08-30T05:52:29.313Z,96434.00
2022-08-30T05:55:00.447Z,96431.25
2022-08-30T05:57:26.838Z,96431.97
2022-08-30T05:59:53.223Z,96440.50
2022-08-30T06:02:19.993Z,96434.03
2022-08-30T06:04:46.427Z,96443.09
2022-08-30T06:07:15.746Z,96440.94
2022-08-30T06:09:44.282Z,96444.53
2022-08-30T06:12:10.755Z,96431.69
2022-08-30T06:14:39.549Z,96433.78
2022-08-30T06:17:06.511Z,96434.41
2022-08-30T06:19:32.935Z,96432.34
2022-08-30T06:22:01.170Z,96433.72
2022-08-30T06:24:41.041Z,96426.03
2022-08-30T06:27:14.586Z,96429.03
2022-08-30T06:29:41.606Z,96426.09
2022-08-30T06:32:08.014Z,96424.84
2022-08-30T06:34:34.950Z,96427.69
2022-08-30T06:37:01.375Z,96423.28
2022-08-30T06:39:27.901Z,96419.50
2022-08-30T06:41:54.587Z,96416.06
2022-08-30T06:44:21.116Z,96419.91
2022-08-30T06:46:47.931Z,96414.34
2022-08-30T06:49:14.871Z,96416.28
2022-08-30T06:51:42.110Z,96407.28
2022-08-30T06:54:11.997Z,96410.59
2022-08-30T06:56:48.593Z,96417.31
2022-08-30T06:59:24.473Z,96406.38
2022-08-30T07:01:50.892Z,96405.75
2022-08-30T07:04:17.613Z,96414.91
2022-08-30T07:06:44.848Z,96421.19
2022-08-30T07:09:11.663Z,96416.13
2022-08-30T07:11:41.285Z,96401.94
2022-08-30T07:14:08.452Z,96411.38
2022-08-30T07:16:35.959Z,96406.19
2022-08-30T07:19:03.851Z,96404.13
2022-08-30T07:21:49.558Z,96408.94
2022-08-30T07:24:16.493Z,96408.22
2022-08-30T07:26:47.164Z,96404.50
2022-08-30T07:29:13.959Z,96403.75
2022-08-30T07:31:40.445Z,96407.53
2022-08-30T07:34:08.514Z,96411.44
2022-08-30T07:36:37.483Z,96399.56
2022-08-30T07:39:05.191Z,96405.97
2022-08-30T07:41:35.656Z,96404.56
2022-08-30T07:44:02.325Z,96406.31
2022-08-30T07:46:28.895Z,96408.41
2022-08-30T07:48:56.352Z,96401.94
2022-08-30T07:51:26.304Z,96408.94
2022-08-30T07:53:53.174Z,96408.53
2022-08-30T07:56:21.105Z,96409.78
2022-08-30T07:58:48.882Z,96415.41
2022-08-30T08:01:17.161Z,96428.56
2022-08-30T08:03:44.339Z,96418.84
2022-08-30T08:06:13.919Z,96419.75
2022-08-30T08:08:42.188Z,96417.81
2022-08-30T08:11:16.442Z,96411.63
2022-08-30T08:13:53.013Z,96413.44
2022-08-30T08:16:27.355Z,96421.97
2022-08-30T08:18:54.560Z,96421.84
2022-08-30T08:21:22.588Z,96433.63
2022-08-30T08:23:49.967Z,96433.13
2022-08-30T08:26:16.565Z,96430.34
2022-08-30T08:28:44.928Z,96432.69
2022-08-30T08:31:20.633Z,96428.38
2022-08-30T08:33:47.344Z,96430.72
2022-08-30T08:36:14.034Z,96422.00
2022-08-30T08:38:40.853Z,96421.31
2022-08-30T08:41:28.626Z,96412.59
2022-08-30T08:43:55.577Z,96419.34
2022-08-30T08:46:40.294Z,96429.91
2022-08-30T08:49:12.535Z,96418.72
2022-08-30T08:51:58.411Z,96413.69
2022-08-30T08:54:34.669Z,96422.72
2022-08-30T08:57:01.132Z,96415.03
2022-08-30T08:59:28.203Z,96412.38
2022-08-30T09:01:59.374Z,96417.13
2022-08-30T09:04:32.377Z,96415.91
2022-08-30T09:07:05.731Z,96420.63
2022-08-30T09:09:35.744Z,96405.34
2022-08-30T09:12:03.968Z,96410.56
2022-08-30T09:14:36.836Z,96407.53
2022-08-30T09:17:09.547Z,96409.00
2022-08-30T09:19:51.698Z,96408.91
2022-08-30T09:22:26.930Z,96405.81
2022-08-30T09:25:13.513Z,96402.25
2022-08-30T09:27:40.339Z,96400.09
2022-08-30T09:30:16.935Z,96393.78
2022-08-30T09:32:53.009Z,96397.81
2022-08-30T09:35:42.837Z,96388.75
2022-08-30T09:38:19.163Z,96390.84
2022-08-30T09:40:55.507Z,96393.19
2022-08-30T09:43:23.876Z,96384.22
2022-08-30T09:46:01.592Z,96379.75
2022-08-30T09:48:33.050Z,96379.59
2022-08-30T09:51:12.047Z,96378.22
2022-08-30T09:57:03.335Z,96374.56
2022-08-30T10:00:08.455Z,96362.72
2022-08-30T10:02:46.727Z,96366.53
2022-08-30T10:05:20.703Z,96360.94
2022-08-30T10:08:06.080Z,96367.44
2022-08-30T10:10:51.623Z,96364.13
2022-08-30T10:13:42.652Z,96352.59
2022-08-30T10:16:19.591Z,96356.59
2022-08-30T10:19:17.422Z,96350.50
2022-08-30T10:21:51.553Z,96350.53
2022-08-30T10:24:24.280Z,96336.44
2022-08-30T10:27:05.314Z,96340.13
2022-08-30T10:29:34.175Z,96337.34
2022-08-30T10:32:17.918Z,96337.66
2022-08-30T10:35:05.907Z,96330.28
2022-08-30T10:37:39.068Z,96342.97
2022-08-30T10:40:33.497Z,96338.31
2022-08-30T10:43:04.606Z,96339.56
2022-08-30T10:45:35.745Z,96331.03
2022-08-30T10:48:21.024Z,96333.72
2022-08-30T10:50:54.146Z,96326.97
2022-08-30T10:53:36.953Z,96314.25
2022-08-30T10:56:11.470Z,96320.66
2022-08-30T10:58:41.412Z,96327.66
2022-08-30T11:01:31.493Z,96315.72
2022-08-30T11:04:07.265Z,96328.22
2022-08-30T11:06:56.339Z,96317.56
2022-08-30T11:10:00.213Z,96317.16
2022-08-30T11:12:37.623Z,96315.97
2022-08-30T11:15:15.770Z,96318.13
2022-08-30T11:18:09.523Z,96319.47
2022-08-30T11:20:43.328Z,96320.81
2022-08-30T11:23:30.521Z,96319.66
2022-08-30T11:26:12.153Z,96315.44
2022-08-30T11:28:47.106Z,96315.72
2022-08-30T11:31:22.647Z,96322.44
2022-08-30T11:33:59.473Z,96318.38
2022-08-30T11:36:37.753Z,96321.09
2022-08-30T11:39:09.447Z,96319.09
2022-08-30T11:41:46.142Z,96320.56
2022-08-30T11:44:32.259Z,96321.56
2022-08-30T11:47:02.446Z,96324.16
2022-08-30T11:49:50.184Z,96313.34
2022-08-30T11:52:35.278Z,96317.09
2022-08-30T11:55:37.126Z,96316.94
2022-08-30T11:58:28.039Z,96319.31
2022-08-30T12:01:49.634Z,96313.59
2022-08-30T12:04:17.645Z,96311.66
2022-08-30T12:06:52.784Z,96305.09
2022-08-30T12:09:25.359Z,96307.03
2022-08-30T12:12:11.592Z,96303.59
2022-08-30T12:14:47.483Z,96309.91
2022-08-30T12:17:41.616Z,96298.16
2022-08-30T12:20:40.963Z,96296.59
2022-08-30T12:23:26.991Z,96299.81
2022-08-30T12:26:34.434Z,96294.81
2022-08-30T12:29:24.426Z,96293.19
2022-08-30T12:31:55.519Z,96290.19
2022-08-30T12:34:24.684Z,96282.44
2022-08-30T12:36:58.705Z,96288.94
2022-08-30T12:39:33.730Z,96289.25
2022-08-30T12:42:22.257Z,96285.28
2022-08-30T12:44:55.618Z,96295.59
2022-08-30T12:47:31.581Z,96286.41
2022-08-30T12:49:59.505Z,96282.47
2022-08-30T12:52:26.433Z,96287.75
2022-08-30T12:54:55.683Z,96289.91
2022-08-30T12:57:43.188Z,96279.47
2022-08-30T13:00:34.062Z,96275.72
2022-08-30T13:03:25.146Z,96276.69
2022-08-30T13:05:53.370Z,96272.13
2022-08-30T13:08:36.862Z,96261.31
2022-08-30T13:11:25.416Z,96269.41
2022-08-30T13:14:18.246Z,96261.94
2022-08-30T13:16:46.407Z,96268.59
2022-08-30T13:19:33.556Z,96264.47
2022-08-30T13:22:01.421Z,96262.75
2022-08-30T13:24:29.031Z,96246.63
2022-08-30T13:26:58.171Z,96256.63
2022-08-30T13:29:27.876Z,96247.41
2022-08-30T13:31:55.796Z,96244.38
2022-08-30T13:34:22.772Z,96237.88
2022-08-30T13:36:58.216Z,96238.28
2022-08-30T13:39:25.099Z,96239.81
2022-08-30T13:41:52.682Z,96236.22
2022-08-30T13:44:19.898Z,96236.59
2022-08-30T13:46:54.409Z,96233.34
2022-08-30T13:52:21.560Z,96217.66
2022-08-30T13:54:53.916Z,96210.22
2022-08-30T14:00:14.903Z,96205.53
2022-08-30T14:02:45.362Z,96216.25
2022-08-30T14:05:30.835Z,96207.13
2022-08-30T14:08:00.582Z,96202.41
2022-08-30T14:10:31.153Z,96193.75
2022-08-30T14:13:08.191Z,96200.47
2022-08-30T14:15:39.036Z,96196.78
2022-08-30T14:18:06.675Z,96200.31
2022-08-30T14:20:35.348Z,96193.06
2022-08-30T14:23:07.667Z,96193.09
2022-08-30T14:25:37.650Z,96183.31
2022-08-30T14:28:07.032Z,96187.00
2022-08-30T14:30:33.897Z,96177.84
2022-08-30T14:33:00.455Z,96178.94
2022-08-30T14:35:26.826Z,96179.78
2022-08-30T14:37:54.496Z,96171.28
2022-08-30T14:40:21.002Z,96168.22
2022-08-30T14:42:47.385Z,96168.34
2022-08-30T14:45:14.389Z,96170.47
2022-08-30T14:47:40.831Z,96170.94
2022-08-30T14:50:07.995Z,96157.63
2022-08-30T14:52:35.366Z,96157.91
2022-08-30T14:55:08.515Z,96150.88
2022-08-30T14:57:35.627Z,96155.03
2022-08-30T15:00:07.779Z,96159.38
2022-08-30T15:02:34.208Z,96151.25
2022-08-30T15:05:00.693Z,96161.94
2022-08-30T15:07:27.925Z,96156.63
2022-08-30T15:09:54.409Z,96158.19
2022-08-30T15:12:20.879Z,96153.16
2022-08-30T15:14:47.677Z,96148.34
2022-08-30T15:17:14.087Z,96150.75
2022-08-30T15:19:41.789Z,96155.75
2022-08-30T15:22:09.685Z,96147.22
2022-08-30T15:24:36.667Z,96148.31
2022-08-30T15:27:03.397Z,96142.19
2022-08-30T15:29:31.740Z,96145.91
2022-08-30T15:31:58.959Z,96145.09
2022-08-30T15:34:26.194Z,96138.25
2022-08-30T15:36:55.044Z,96143.59
2022-08-30T15:39:21.473Z,96145.22
2022-08-30T15:41:56.039Z,96140.03
2022-08-30T15:44:25.427Z,96129.22
2022-08-30T15:46:52.060Z,96132.78
2022-08-30T15:49:21.478Z,96132.03
2022-08-30T15:51:51.548Z,96117.41
2022-08-30T15:54:23.179Z,96123.47
2022-08-30T15:56:50.714Z,96130.22
2022-08-30T15:59:18.661Z,96123.00
2022-08-30T16:01:45.389Z,96129.56
2022-08-30T16:04:18.648Z,96122.53
2022-08-30T16:06:46.030Z,96126.97
2022-08-30T16:09:12.466Z,96116.75
2022-08-30T16:11:39.889Z,96122.31
2022-08-30T16:14:06.371Z,96121.88
2022-08-30T16:16:33.307Z,96118.19
2022-08-30T16:19:01.735Z,96119.66
2022-08-30T16:21:33.140Z,96113.63
2022-08-30T16:24:01.408Z,96121.06
2022-08-30T16:26:30.630Z,96120.72
2022-08-30T16:28:58.705Z,96114.34
2022-08-30T16:31:27.356Z,96124.91
2022-08-30T16:33:55.641Z,96117.88
2022-08-30T16:36:29.627Z,96121.97
2022-08-30T16:38:58.310Z,96118.38
2022-08-30T16:41:25.256Z,96114.91
2022-08-30T16:43:53.648Z,96110.31
2022-08-30T16:46:23.352Z,96119.75
2022-08-30T16:48:56.174Z,96118.59
2022-08-30T16:51:24.383Z,96113.16
2022-08-30T16:53:54.725Z,96109.28
2022-08-30T16:56:24.423Z,96105.19
2022-08-30T16:59:00.708Z,96108.44
2022-08-30T17:01:29.010Z,96108.38
2022-08-30T17:03:55.912Z,96113.69
2022-08-30T17:06:22.623Z,96111.56
2022-08-30T17:08:48.967Z,96107.75
2022-08-30T17:11:22.860Z,96095.59
2022-08-30T17:13:49.248Z,96107.81
2022-08-30T17:16:27.693Z,96113.06
2022-08-30T17:19:00.813Z,96104.78
2022-08-30T17:21:29.526Z,96106.84
2022-08-30T17:24:01.462Z,96112.47
2022-08-30T17:26:29.252Z,96115.69
2022-08-30T17:28:55.622Z,96127.53
2022-08-30T17:31:22.398Z,96125.50
2022-08-30T17:33:50.002Z,96141.38
2022-08-30T17:36:16.410Z,96144.38
2022-08-30T17:38:45.200Z,96145.97
2022-08-30T17:41:13.498Z,96143.63
2022-08-30T17:43:40.133Z,96141.50
2022-08-30T17:46:12.002Z,96140.38
2022-08-30T17:48:40.971Z,96157.13
2022-08-30T17:51:07.946Z,96147.31
2022-08-30T17:53:34.599Z,96145.53
2022-08-30T17:56:01.483Z,96153.34
2022-08-30T17:58:28.051Z,96151.94
2022-08-30T18:01:11.689Z,96161.84
2022-08-30T18:03:39.246Z,96152.78
2022-08-30T18:06:06.671Z,96155.34
2022-08-30T18:08:34.028Z,96164.66
2022-08-30T18:11:01.074Z,96171.53
2022-08-30T18:13:27.479Z,96174.97
2022-08-30T18:15:54.280Z,96178.56
2022-08-30T18:18:21.108Z,96180.78
2022-08-30T18:20:47.755Z,96182.28
2022-08-30T18:23:14.981Z,96180.06
2022-08-30T18:25:42.031Z,96181.19
2022-08-30T18:28:08.732Z,96192.03
2022-08-30T18:30:41.410Z,96182.16
2022-08-30T18:33:09.202Z,96184.06
2022-08-30T18:35:36.346Z,96190.31
2022-08-30T18:38:03.809Z,96180.09
2022-08-30T18:40:30.438Z,96190.13
2022-08-30T18:42:56.807Z,96189.34
2022-08-30T18:45:24.347Z,96183.41
2022-08-30T18:47:50.813Z,96186.13
2022-08-30T18:50:17.309Z,96194.72
2022-08-30T18:52:47.054Z,96198.50
2022-08-30T18:55:14.003Z,96197.16
2022-08-30T18:57:40.642Z,96206.06
2022-08-30T19:00:09.761Z,96210.88
2022-08-30T19:02:36.652Z,96207.09
2022-08-30T19:05:03.361Z,96214.59
2022-08-30T19:07:34.400Z,96204.34
2022-08-30T19:10:05.483Z,96207.31
2022-08-30T19:12:32.262Z,96200.81
2022-08-30T19:14:59.271Z,96204.84
2022-08-30T19:17:27.078Z,96212.84
2022-08-30T19:19:54.913Z,96214.97
2022-08-30T19:22:26.793Z,96218.69
2022-08-30T19:24:55.171Z,96220.53
2022-08-30T19:27:37.785Z,96229.88
2022-08-30T19:30:08.843Z,96235.97
2022-08-30T19:32:35.691Z,96229.81
2022-08-30T19:35:02.068Z,96224.91
2022-08-30T19:37:29.545Z,96229.44
2022-08-30T19:39:56.295Z,96231.75
2022-08-30T19:42:27.051Z,96228.50
2022-08-30T19:44:53.448Z,96230.81
2022-08-30T19:47:19.822Z,96237.44
2022-08-30T19:49:46.752Z,96233.84
2022-08-30T19:52:13.647Z,96231.69
2022-08-30T19:57:27.517Z,96221.25
2022-08-30T19:59:54.236Z,96228.69
2022-08-30T20:02:20.705Z,96229.25
2022-08-30T20:04:47.466Z,96221.16
2022-08-30T20:07:14.492Z,96225.97
2022-08-30T20:09:41.211Z,96230.00
2022-08-30T20:12:07.755Z,96229.38
2022-08-30T20:14:34.107Z,96221.78
2022-08-30T20:17:02.237Z,96225.16
2022-08-30T20:19:29.336Z,96218.19
2022-08-30T20:21:59.073Z,96220.38
2022-08-30T20:24:32.574Z,96232.03
2022-08-30T20:26:59.266Z,96225.63
2022-08-30T20:29:25.619Z,96218.13
2022-08-30T20:31:52.431Z,96232.94
2022-08-30T20:34:24.499Z,96229.06
2022-08-30T20:36:52.464Z,96230.19
2022-08-30T20:39:22.391Z,96232.63
2022-08-30T20:41:49.294Z,96230.44
2022-08-30T20:44:16.857Z,96235.00
2022-08-30T20:46:46.024Z,96227.44
2022-08-30T20:49:13.036Z,96228.06
2022-08-30T20:51:40.042Z,96224.00
2022-08-30T20:54:07.474Z,96237.53
2022-08-30T20:56:34.410Z,96235.34
2022-08-30T20:59:02.638Z,96236.56
2022-08-30T21:01:31.610Z,96236.63
2022-08-30T21:03:58.182Z,96231.91
2022-08-30T21:06:25.235Z,96232.88
2022-08-30T21:08:52.771Z,96241.00
2022-08-30T21:11:19.560Z,96238.75
2022-08-30T21:13:48.204Z,96236.88
2022-08-30T21:16:17.110Z,96232.25
2022-08-30T21:18:48.707Z,96234.38
2022-08-30T21:21:22.711Z,96230.94
2022-08-30T21:23:50.477Z,96228.75
2022-08-30T21:26:17.479Z,96227.28
2022-08-30T21:28:47.394Z,96234.06
2022-08-30T21:31:19.252Z,96236.81
2022-08-30T21:33:48.226Z,96237.38
2022-08-30T21:36:34.460Z,96234.50
2022-08-30T21:39:01.138Z,96235.88
2022-08-30T21:41:28.713Z,96228.97
2022-08-30T21:44:01.197Z,96241.34
2022-08-30T21:46:29.264Z,96231.16
2022-08-30T21:48:59.100Z,96230.06
2022-08-30T21:51:25.798Z,96228.34
2022-08-30T21:53:52.162Z,96230.31
2022-08-30T21:56:22.114Z,96224.31
2022-08-30T21:58:50.199Z,96217.41
2022-08-30T22:01:24.939Z,96215.53
2022-08-30T22:03:57.184Z,96213.41
2022-08-30T22:06:25.230Z,96215.53
2022-08-30T22:08:59.489Z,96223.66
2022-08-30T22:11:27.375Z,96225.63
2022-08-30T22:13:54.933Z,96223.44
2022-08-30T22:16:23.096Z,96231.47
2022-08-30T22:18:50.356Z,96230.16
2022-08-30T22:21:20.702Z,96225.94
2022-08-30T22:23:47.126Z,96223.03
2022-08-30T22:26:16.212Z,96216.66
2022-08-30T22:28:42.675Z,96234.38
2022-08-30T22:31:12.283Z,96228.47
2022-08-30T22:33:39.418Z,96232.75
2022-08-30T22:36:21.310Z,96238.75
2022-08-30T22:38:48.767Z,96236.13
2022-08-30T22:41:17.474Z,96238.44
2022-08-30T22:43:45.192Z,96241.88
2022-08-30T22:46:12.073Z,96239.75
2022-08-30T22:48:40.903Z,96239.56
2022-08-30T22:51:08.469Z,96238.38
2022-08-30T22:53:34.876Z,96246.97
2022-08-30T22:56:09.459Z,96241.75
2022-08-30T22:58:36.206Z,96240.25
2022-08-30T23:01:02.707Z,96242.44
2022-08-30T23:03:29.225Z,96246.22
2022-08-30T23:05:55.946Z,96245.75
2022-08-30T23:08:22.928Z,96249.66
2022-08-30T23:10:49.369Z,96244.50
2022-08-30T23:13:15.742Z,96247.28
2022-08-30T23:15:42.870Z,96249.66
2022-08-30T23:18:09.603Z,96249.16
2022-08-30T23:20:36.060Z,96250.66
2022-08-30T23:23:03.015Z,96248.97
2022-08-30T23:25:51.866Z,96240.69
2022-08-30T23:28:39.427Z,96240.31
2022-08-30T23:31:33.974Z,96239.66
2022-08-30T23:34:20.533Z,96243.66
2022-08-30T23:37:05.900Z,96238.38
2022-08-30T23:39:51.825Z,96230.22
2022-08-30T23:42:36.606Z,96229.13
2022-08-30T23:45:21.991Z,96231.25
2022-08-30T23:48:06.735Z,96223.66
2022-08-30T23:50:51.968Z,96224.63
2022-08-30T23:53:36.748Z,96225.81
2022-08-30T23:56:22.412Z,96228.22
2022-08-30T23:59:07.275Z,96217.50
